sensor_id;sensor_type;location;lat;lon;timestamp;temperature;humidity
2439;DHT22;14509;47.992;7.848;2024-02-14T00:01:13;12.00;46.10
2439;DHT22;14509;47.992;7.848;2024-02-14T00:03:17;11.90;46.10
2439;DHT22;14509;47.992;7.848;2024-02-14T00:05:21;12.00;46.30
2439;DHT22;14509;47.992;7.848;2024-02-14T00:07:23;11.90;46.40
2439;DHT22;14509;47.992;7.848;2024-02-14T00:09:25;12.00;46.40
2439;DHT22;14509;47.992;7.848;2024-02-14T00:11:26;12.00;46.30
2439;DHT22;14509;47.992;7.848;2024-02-14T00:13:30;12.00;46.10
2439;DHT22;14509;47.992;7.848;2024-02-14T00:15:34;12.80;46.70
2439;DHT22;14509;47.992;7.848;2024-02-14T00:17:36;12.20;46.00
2439;DHT22;14509;47.992;7.848;2024-02-14T00:19:38;12.20;45.80
2439;DHT22;14509;47.992;7.848;2024-02-14T00:21:40;13.20;46.50
2439;DHT22;14509;47.992;7.848;2024-02-14T00:23:42;12.40;45.70
2439;DHT22;14509;47.992;7.848;2024-02-14T00:25:44;12.40;45.60
2439;DHT22;14509;47.992;7.848;2024-02-14T00:27:46;12.40;45.60
2439;DHT22;14509;47.992;7.848;2024-02-14T00:29:49;12.40;45.50
2439;DHT22;14509;47.992;7.848;2024-02-14T00:31:51;12.40;45.40
2439;DHT22;14509;47.992;7.848;2024-02-14T00:33:52;12.40;46.00
2439;DHT22;14509;47.992;7.848;2024-02-14T00:35:53;12.40;45.50
2439;DHT22;14509;47.992;7.848;2024-02-14T00:37:55;12.40;45.50
2439;DHT22;14509;47.992;7.848;2024-02-14T00:39:57;12.50;45.60
2439;DHT22;14509;47.992;7.848;2024-02-14T00:41:59;12.30;45.50
2439;DHT22;14509;47.992;7.848;2024-02-14T00:44:01;12.30;45.50
2439;DHT22;14509;47.992;7.848;2024-02-14T00:46:05;12.30;45.60
2439;DHT22;14509;47.992;7.848;2024-02-14T00:48:07;12.30;45.60
2439;DHT22;14509;47.992;7.848;2024-02-14T00:50:09;12.30;45.60
2439;DHT22;14509;47.992;7.848;2024-02-14T00:52:14;12.30;45.60
2439;DHT22;14509;47.992;7.848;2024-02-14T00:54:17;12.30;45.60
2439;DHT22;14509;47.992;7.848;2024-02-14T00:56:18;12.30;45.60
2439;DHT22;14509;47.992;7.848;2024-02-14T00:58:20;12.30;45.70
2439;DHT22;14509;47.992;7.848;2024-02-14T01:00:21;12.30;45.60
2439;DHT22;14509;47.992;7.848;2024-02-14T01:02:25;12.40;45.70
2439;DHT22;14509;47.992;7.848;2024-02-14T01:04:27;12.40;45.70
2439;DHT22;14509;47.992;7.848;2024-02-14T01:06:30;12.40;45.50
2439;DHT22;14509;47.992;7.848;2024-02-14T01:08:32;12.40;45.50
2439;DHT22;14509;47.992;7.848;2024-02-14T01:10:34;12.50;45.40
2439;DHT22;14509;47.992;7.848;2024-02-14T01:12:36;12.60;45.30
2439;DHT22;14509;47.992;7.848;2024-02-14T01:14:36;12.70;45.20
2439;DHT22;14509;47.992;7.848;2024-02-14T01:16:42;12.70;45.00
2439;DHT22;14509;47.992;7.848;2024-02-14T01:18:45;12.80;44.70
2439;DHT22;14509;47.992;7.848;2024-02-14T01:20:47;13.00;44.50
2439;DHT22;14509;47.992;7.848;2024-02-14T01:22:49;13.10;44.10
2439;DHT22;14509;47.992;7.848;2024-02-14T01:24:50;13.20;43.80
2439;DHT22;14509;47.992;7.848;2024-02-14T01:26:52;13.40;43.50
2439;DHT22;14509;47.992;7.848;2024-02-14T01:28:55;13.50;43.20
2439;DHT22;14509;47.992;7.848;2024-02-14T01:30:57;13.60;42.70
2439;DHT22;14509;47.992;7.848;2024-02-14T01:32:59;13.70;42.40
2439;DHT22;14509;47.992;7.848;2024-02-14T01:35:02;13.90;42.20
2439;DHT22;14509;47.992;7.848;2024-02-14T01:37:05;13.90;42.00
2439;DHT22;14509;47.992;7.848;2024-02-14T01:42:29;14.10;41.20
2439;DHT22;14509;47.992;7.848;2024-02-14T01:44:31;14.10;40.80
2439;DHT22;14509;47.992;7.848;2024-02-14T01:46:33;14.20;40.50
2439;DHT22;14509;47.992;7.848;2024-02-14T01:48:35;14.30;40.40
2439;DHT22;14509;47.992;7.848;2024-02-14T01:50:38;14.30;40.10
2439;DHT22;14509;47.992;7.848;2024-02-14T01:52:41;14.30;40.40
2439;DHT22;14509;47.992;7.848;2024-02-14T01:54:43;14.30;40.60
2439;DHT22;14509;47.992;7.848;2024-02-14T01:56:45;14.40;40.10
2439;DHT22;14509;47.992;7.848;2024-02-14T01:58:48;14.40;39.90
2439;DHT22;14509;47.992;7.848;2024-02-14T02:00:51;14.40;39.90
2439;DHT22;14509;47.992;7.848;2024-02-14T02:02:56;14.50;39.90
2439;DHT22;14509;47.992;7.848;2024-02-14T02:04:58;14.50;39.70
2439;DHT22;14509;47.992;7.848;2024-02-14T02:07:01;14.50;39.50
2439;DHT22;14509;47.992;7.848;2024-02-14T02:09:04;14.50;39.40
2439;DHT22;14509;47.992;7.848;2024-02-14T02:11:08;14.60;39.40
2439;DHT22;14509;47.992;7.848;2024-02-14T02:13:09;14.60;39.40
2439;DHT22;14509;47.992;7.848;2024-02-14T02:15:11;14.60;39.50
2439;DHT22;14509;47.992;7.848;2024-02-14T02:17:15;14.70;39.40
2439;DHT22;14509;47.992;7.848;2024-02-14T02:19:18;14.70;39.30
2439;DHT22;14509;47.992;7.848;2024-02-14T02:21:20;14.80;39.20
2439;DHT22;14509;47.992;7.848;2024-02-14T02:23:25;14.80;39.10
2439;DHT22;14509;47.992;7.848;2024-02-14T02:25:26;14.80;38.90
2439;DHT22;14509;47.992;7.848;2024-02-14T02:27:27;14.90;38.80
2439;DHT22;14509;47.992;7.848;2024-02-14T02:29:29;15.00;38.80
2439;DHT22;14509;47.992;7.848;2024-02-14T02:31:32;15.00;38.70
2439;DHT22;14509;47.992;7.848;2024-02-14T02:33:33;15.10;38.70
2439;DHT22;14509;47.992;7.848;2024-02-14T02:35:34;15.10;38.50
2439;DHT22;14509;47.992;7.848;2024-02-14T02:37:36;15.20;38.40
2439;DHT22;14509;47.992;7.848;2024-02-14T02:39:38;15.30;38.40
2439;DHT22;14509;47.992;7.848;2024-02-14T02:41:40;15.20;37.90
2439;DHT22;14509;47.992;7.848;2024-02-14T02:43:42;15.30;38.30
2439;DHT22;14509;47.992;7.848;2024-02-14T02:45:44;15.70;38.30
2439;DHT22;14509;47.992;7.848;2024-02-14T02:47:45;15.30;37.70
2439;DHT22;14509;47.992;7.848;2024-02-14T02:49:48;15.30;37.70
2439;DHT22;14509;47.992;7.848;2024-02-14T02:51:50;15.40;37.80
2439;DHT22;14509;47.992;7.848;2024-02-14T02:53:52;15.50;37.60
2439;DHT22;14509;47.992;7.848;2024-02-14T02:55:56;15.60;37.40
2439;DHT22;14509;47.992;7.848;2024-02-14T02:57:57;15.60;37.30
2439;DHT22;14509;47.992;7.848;2024-02-14T02:59:59;15.60;37.30
2439;DHT22;14509;47.992;7.848;2024-02-14T03:02:01;15.60;37.30
2439;DHT22;14509;47.992;7.848;2024-02-14T03:04:02;15.70;37.10
2439;DHT22;14509;47.992;7.848;2024-02-14T03:06:05;15.70;37.10
2439;DHT22;14509;47.992;7.848;2024-02-14T03:08:07;15.80;37.20
2439;DHT22;14509;47.992;7.848;2024-02-14T03:10:10;15.80;36.90
2439;DHT22;14509;47.992;7.848;2024-02-14T03:12:15;15.80;36.80
2439;DHT22;14509;47.992;7.848;2024-02-14T03:14:19;15.90;36.80
2439;DHT22;14509;47.992;7.848;2024-02-14T03:16:21;15.90;36.50
2439;DHT22;14509;47.992;7.848;2024-02-14T03:18:24;15.90;36.50
2439;DHT22;14509;47.992;7.848;2024-02-14T03:20:26;15.90;35.90
2439;DHT22;14509;47.992;7.848;2024-02-14T03:22:30;15.90;36.00
2439;DHT22;14509;47.992;7.848;2024-02-14T03:24:32;15.90;35.90
2439;DHT22;14509;47.992;7.848;2024-02-14T03:26:36;15.90;35.70
2439;DHT22;14509;47.992;7.848;2024-02-14T03:28:38;15.90;35.70
2439;DHT22;14509;47.992;7.848;2024-02-14T03:30:40;15.90;35.60
2439;DHT22;14509;47.992;7.848;2024-02-14T03:32:41;15.90;35.20
2439;DHT22;14509;47.992;7.848;2024-02-14T03:34:42;15.90;35.90
2439;DHT22;14509;47.992;7.848;2024-02-14T03:36:44;15.80;35.20
2439;DHT22;14509;47.992;7.848;2024-02-14T03:38:46;15.90;35.80
2439;DHT22;14509;47.992;7.848;2024-02-14T03:40:48;15.80;35.10
2439;DHT22;14509;47.992;7.848;2024-02-14T03:42:50;15.80;35.20
2439;DHT22;14509;47.992;7.848;2024-02-14T03:44:53;15.80;35.20
2439;DHT22;14509;47.992;7.848;2024-02-14T03:47:00;15.90;35.10
2439;DHT22;14509;47.992;7.848;2024-02-14T03:49:02;15.90;34.50
2439;DHT22;14509;47.992;7.848;2024-02-14T03:51:04;15.80;34.50
2439;DHT22;14509;47.992;7.848;2024-02-14T03:53:06;15.90;34.40
2439;DHT22;14509;47.992;7.848;2024-02-14T03:55:08;15.90;34.30
2439;DHT22;14509;47.992;7.848;2024-02-14T03:57:13;16.00;34.20
2439;DHT22;14509;47.992;7.848;2024-02-14T03:59:15;16.00;34.00
2439;DHT22;14509;47.992;7.848;2024-02-14T04:01:22;16.00;34.00
2439;DHT22;14509;47.992;7.848;2024-02-14T04:03:24;16.00;34.00
2439;DHT22;14509;47.992;7.848;2024-02-14T04:05:29;16.00;34.30
2439;DHT22;14509;47.992;7.848;2024-02-14T04:07:31;15.80;35.30
2439;DHT22;14509;47.992;7.848;2024-02-14T04:09:34;15.80;34.80
2439;DHT22;14509;47.992;7.848;2024-02-14T04:11:36;15.90;34.80
2439;DHT22;14509;47.992;7.848;2024-02-14T04:13:38;15.90;34.80
2439;DHT22;14509;47.992;7.848;2024-02-14T04:15:40;16.00;35.00
2439;DHT22;14509;47.992;7.848;2024-02-14T04:17:44;16.00;34.90
2439;DHT22;14509;47.992;7.848;2024-02-14T04:19:45;16.00;34.90
2439;DHT22;14509;47.992;7.848;2024-02-14T04:21:47;16.10;35.20
2439;DHT22;14509;47.992;7.848;2024-02-14T04:23:48;16.20;35.10
2439;DHT22;14509;47.992;7.848;2024-02-14T04:25:49;16.40;35.20
2439;DHT22;14509;47.992;7.848;2024-02-14T04:27:50;16.30;35.10
2439;DHT22;14509;47.992;7.848;2024-02-14T04:29:52;16.30;35.20
2439;DHT22;14509;47.992;7.848;2024-02-14T04:31:54;16.30;35.20
2439;DHT22;14509;47.992;7.848;2024-02-14T04:33:56;16.40;35.50
2439;DHT22;14509;47.992;7.848;2024-02-14T04:35:58;16.30;35.50
2439;DHT22;14509;47.992;7.848;2024-02-14T04:37:59;16.30;35.60
2439;DHT22;14509;47.992;7.848;2024-02-14T04:40:01;16.40;35.70
2439;DHT22;14509;47.992;7.848;2024-02-14T04:42:04;16.40;35.60
2439;DHT22;14509;47.992;7.848;2024-02-14T04:44:06;16.40;35.70
2439;DHT22;14509;47.992;7.848;2024-02-14T04:46:08;16.40;35.70
2439;DHT22;14509;47.992;7.848;2024-02-14T04:48:09;16.50;35.80
2439;DHT22;14509;47.992;7.848;2024-02-14T04:50:12;16.50;35.80
2439;DHT22;14509;47.992;7.848;2024-02-14T04:52:14;16.50;35.80
2439;DHT22;14509;47.992;7.848;2024-02-14T04:54:16;16.60;35.90
2439;DHT22;14509;47.992;7.848;2024-02-14T04:56:18;16.50;35.70
2439;DHT22;14509;47.992;7.848;2024-02-14T04:58:20;16.60;35.90
2439;DHT22;14509;47.992;7.848;2024-02-14T05:00:21;16.60;35.90
2439;DHT22;14509;47.992;7.848;2024-02-14T05:02:23;16.50;35.80
2439;DHT22;14509;47.992;7.848;2024-02-14T05:04:25;16.50;36.00
2439;DHT22;14509;47.992;7.848;2024-02-14T05:06:28;16.50;36.00
2439;DHT22;14509;47.992;7.848;2024-02-14T05:08:30;16.40;35.90
2439;DHT22;14509;47.992;7.848;2024-02-14T05:10:31;16.60;35.90
2439;DHT22;14509;47.992;7.848;2024-02-14T05:12:33;16.60;35.90
2439;DHT22;14509;47.992;7.848;2024-02-14T05:14:37;16.70;35.90
2439;DHT22;14509;47.992;7.848;2024-02-14T05:16:40;16.70;35.80
2439;DHT22;14509;47.992;7.848;2024-02-14T05:18:42;16.70;35.60
2439;DHT22;14509;47.992;7.848;2024-02-14T05:20:44;16.70;35.60
2439;DHT22;14509;47.992;7.848;2024-02-14T05:22:47;16.70;35.70
2439;DHT22;14509;47.992;7.848;2024-02-14T05:24:49;16.70;35.60
2439;DHT22;14509;47.992;7.848;2024-02-14T05:26:51;16.80;35.60
2439;DHT22;14509;47.992;7.848;2024-02-14T05:28:53;16.80;35.50
2439;DHT22;14509;47.992;7.848;2024-02-14T05:30:55;16.80;35.40
2439;DHT22;14509;47.992;7.848;2024-02-14T05:32:57;16.90;35.40
2439;DHT22;14509;47.992;7.848;2024-02-14T05:34:59;16.80;35.10
2439;DHT22;14509;47.992;7.848;2024-02-14T05:37:01;16.90;35.00
2439;DHT22;14509;47.992;7.848;2024-02-14T05:39:04;16.80;34.90
2439;DHT22;14509;47.992;7.848;2024-02-14T05:41:06;16.80;35.00
2439;DHT22;14509;47.992;7.848;2024-02-14T05:43:08;16.80;34.80
2439;DHT22;14509;47.992;7.848;2024-02-14T05:45:10;16.90;34.90
2439;DHT22;14509;47.992;7.848;2024-02-14T05:47:12;16.90;34.90
2439;DHT22;14509;47.992;7.848;2024-02-14T05:49:13;16.90;34.80
2439;DHT22;14509;47.992;7.848;2024-02-14T05:51:14;16.80;34.60
2439;DHT22;14509;47.992;7.848;2024-02-14T05:53:16;16.90;34.70
2439;DHT22;14509;47.992;7.848;2024-02-14T05:55:19;17.00;34.90
2439;DHT22;14509;47.992;7.848;2024-02-14T05:57:21;16.90;34.60
2439;DHT22;14509;47.992;7.848;2024-02-14T05:59:23;16.90;34.70
2439;DHT22;14509;47.992;7.848;2024-02-14T06:01:25;17.00;34.80
2439;DHT22;14509;47.992;7.848;2024-02-14T06:03:27;17.00;34.80
2439;DHT22;14509;47.992;7.848;2024-02-14T06:05:29;17.10;34.80
2439;DHT22;14509;47.992;7.848;2024-02-14T06:07:31;17.10;34.80
2439;DHT22;14509;47.992;7.848;2024-02-14T06:09:32;17.10;34.70
2439;DHT22;14509;47.992;7.848;2024-02-14T06:11:35;17.10;34.50
2439;DHT22;14509;47.992;7.848;2024-02-14T06:13:39;17.10;34.50
2439;DHT22;14509;47.992;7.848;2024-02-14T06:15:41;17.10;34.50
2439;DHT22;14509;47.992;7.848;2024-02-14T06:17:43;17.00;35.10
2439;DHT22;14509;47.992;7.848;2024-02-14T06:19:45;17.10;34.60
2439;DHT22;14509;47.992;7.848;2024-02-14T06:21:47;17.10;34.60
2439;DHT22;14509;47.992;7.848;2024-02-14T06:23:48;17.20;34.80
2439;DHT22;14509;47.992;7.848;2024-02-14T06:25:50;17.10;34.80
2439;DHT22;14509;47.992;7.848;2024-02-14T06:27:55;17.10;34.80
2439;DHT22;14509;47.992;7.848;2024-02-14T06:29:57;17.20;34.80
2439;DHT22;14509;47.992;7.848;2024-02-14T06:32:00;17.20;34.60
2439;DHT22;14509;47.992;7.848;2024-02-14T06:34:02;17.20;34.80
2439;DHT22;14509;47.992;7.848;2024-02-14T06:36:05;17.20;34.70
2439;DHT22;14509;47.992;7.848;2024-02-14T06:38:06;17.20;34.60
2439;DHT22;14509;47.992;7.848;2024-02-14T06:40:08;17.30;34.60
2439;DHT22;14509;47.992;7.848;2024-02-14T06:42:11;17.30;34.40
2439;DHT22;14509;47.992;7.848;2024-02-14T06:44:14;17.20;34.30
2439;DHT22;14509;47.992;7.848;2024-02-14T06:46:16;17.20;34.40
2439;DHT22;14509;47.992;7.848;2024-02-14T06:48:17;17.20;34.40
2439;DHT22;14509;47.992;7.848;2024-02-14T06:50:22;17.30;34.50
2439;DHT22;14509;47.992;7.848;2024-02-14T06:52:26;17.20;34.20
2439;DHT22;14509;47.992;7.848;2024-02-14T06:54:28;17.30;34.30
2439;DHT22;14509;47.992;7.848;2024-02-14T06:56:30;17.30;34.20
2439;DHT22;14509;47.992;7.848;2024-02-14T06:58:32;17.20;34.20
2439;DHT22;14509;47.992;7.848;2024-02-14T07:00:35;17.30;34.20
2439;DHT22;14509;47.992;7.848;2024-02-14T07:02:37;17.30;34.20
2439;DHT22;14509;47.992;7.848;2024-02-14T07:04:39;17.30;33.90
2439;DHT22;14509;47.992;7.848;2024-02-14T07:06:40;17.40;34.10
2439;DHT22;14509;47.992;7.848;2024-02-14T07:08:41;17.30;34.20
2439;DHT22;14509;47.992;7.848;2024-02-14T07:10:43;17.40;34.30
2439;DHT22;14509;47.992;7.848;2024-02-14T07:12:45;17.40;34.40
2439;DHT22;14509;47.992;7.848;2024-02-14T07:14:47;17.40;34.40
2439;DHT22;14509;47.992;7.848;2024-02-14T07:16:50;17.50;34.40
2439;DHT22;14509;47.992;7.848;2024-02-14T07:18:52;17.50;34.40
2439;DHT22;14509;47.992;7.848;2024-02-14T07:20:56;17.50;34.40
2439;DHT22;14509;47.992;7.848;2024-02-14T07:22:57;17.50;34.40
2439;DHT22;14509;47.992;7.848;2024-02-14T07:24:59;17.50;34.50
2439;DHT22;14509;47.992;7.848;2024-02-14T07:27:01;17.60;34.40
2439;DHT22;14509;47.992;7.848;2024-02-14T07:29:02;17.60;34.10
2439;DHT22;14509;47.992;7.848;2024-02-14T07:31:04;17.60;34.10
2439;DHT22;14509;47.992;7.848;2024-02-14T07:33:07;17.60;34.20
2439;DHT22;14509;47.992;7.848;2024-02-14T07:35:10;17.50;33.90
2439;DHT22;14509;47.992;7.848;2024-02-14T07:37:13;17.60;34.00
2439;DHT22;14509;47.992;7.848;2024-02-14T07:39:21;17.50;33.90
2439;DHT22;14509;47.992;7.848;2024-02-14T07:41:24;17.40;34.30
2439;DHT22;14509;47.992;7.848;2024-02-14T07:43:25;17.30;34.30
2439;DHT22;14509;47.992;7.848;2024-02-14T07:45:27;17.30;34.40
2439;DHT22;14509;47.992;7.848;2024-02-14T07:47:29;17.40;34.50
2439;DHT22;14509;47.992;7.848;2024-02-14T07:49:32;17.40;34.10
2439;DHT22;14509;47.992;7.848;2024-02-14T07:51:34;17.30;34.30
2439;DHT22;14509;47.992;7.848;2024-02-14T07:53:38;17.20;34.40
2439;DHT22;14509;47.992;7.848;2024-02-14T07:55:40;17.20;34.40
2439;DHT22;14509;47.992;7.848;2024-02-14T07:57:42;17.30;34.40
2439;DHT22;14509;47.992;7.848;2024-02-14T07:59:44;17.30;34.30
2439;DHT22;14509;47.992;7.848;2024-02-14T08:01:46;17.40;34.40
2439;DHT22;14509;47.992;7.848;2024-02-14T08:03:47;17.40;34.60
2439;DHT22;14509;47.992;7.848;2024-02-14T08:05:51;17.40;34.60
2439;DHT22;14509;47.992;7.848;2024-02-14T08:07:52;17.20;34.50
2439;DHT22;14509;47.992;7.848;2024-02-14T08:09:54;17.40;34.70
2439;DHT22;14509;47.992;7.848;2024-02-14T08:11:56;17.40;34.70
2439;DHT22;14509;47.992;7.848;2024-02-14T08:13:58;17.40;34.90
2439;DHT22;14509;47.992;7.848;2024-02-14T08:16:00;17.40;35.10
2439;DHT22;14509;47.992;7.848;2024-02-14T08:18:02;17.40;35.00
2439;DHT22;14509;47.992;7.848;2024-02-14T08:20:05;17.40;34.90
2439;DHT22;14509;47.992;7.848;2024-02-14T08:22:08;17.40;34.90
2439;DHT22;14509;47.992;7.848;2024-02-14T08:24:10;17.40;35.00
2439;DHT22;14509;47.992;7.848;2024-02-14T08:26:11;17.50;35.00
2439;DHT22;14509;47.992;7.848;2024-02-14T08:28:14;17.40;35.00
2439;DHT22;14509;47.992;7.848;2024-02-14T08:30:18;17.50;35.20
2439;DHT22;14509;47.992;7.848;2024-02-14T08:32:20;17.40;35.30
2439;DHT22;14509;47.992;7.848;2024-02-14T08:34:22;17.40;35.50
2439;DHT22;14509;47.992;7.848;2024-02-14T08:36:24;17.30;35.60
2439;DHT22;14509;47.992;7.848;2024-02-14T08:38:27;17.20;35.90
2439;DHT22;14509;47.992;7.848;2024-02-14T08:40:29;17.10;36.10
2439;DHT22;14509;47.992;7.848;2024-02-14T08:42:31;17.00;36.50
2439;DHT22;14509;47.992;7.848;2024-02-14T08:44:33;17.00;37.40
2439;DHT22;14509;47.992;7.848;2024-02-14T08:46:35;17.00;36.70
2439;DHT22;14509;47.992;7.848;2024-02-14T08:48:36;17.00;36.30
2439;DHT22;14509;47.992;7.848;2024-02-14T08:50:42;17.00;36.60
2439;DHT22;14509;47.992;7.848;2024-02-14T08:52:44;17.00;36.60
2439;DHT22;14509;47.992;7.848;2024-02-14T08:54:47;17.10;36.70
2439;DHT22;14509;47.992;7.848;2024-02-14T08:56:49;17.10;36.50
2439;DHT22;14509;47.992;7.848;2024-02-14T08:58:53;17.20;36.40
2439;DHT22;14509;47.992;7.848;2024-02-14T09:00:55;17.30;36.30
2439;DHT22;14509;47.992;7.848;2024-02-14T09:02:57;17.50;36.20
2439;DHT22;14509;47.992;7.848;2024-02-14T09:05:00;17.50;35.70
2439;DHT22;14509;47.992;7.848;2024-02-14T09:07:04;17.60;35.70
2439;DHT22;14509;47.992;7.848;2024-02-14T09:09:05;17.70;35.80
2439;DHT22;14509;47.992;7.848;2024-02-14T09:11:08;17.80;35.80
2439;DHT22;14509;47.992;7.848;2024-02-14T09:13:10;18.70;36.10
2439;DHT22;14509;47.992;7.848;2024-02-14T09:15:12;18.00;35.40
2439;DHT22;14509;47.992;7.848;2024-02-14T09:17:14;18.20;35.30
2439;DHT22;14509;47.992;7.848;2024-02-14T09:19:16;18.40;35.30
2439;DHT22;14509;47.992;7.848;2024-02-14T09:21:17;18.60;35.00
2439;DHT22;14509;47.992;7.848;2024-02-14T09:23:23;18.70;34.60
2439;DHT22;14509;47.992;7.848;2024-02-14T09:25:26;18.80;34.20
2439;DHT22;14509;47.992;7.848;2024-02-14T09:27:28;18.90;34.10
2439;DHT22;14509;47.992;7.848;2024-02-14T09:29:30;19.00;34.00
2439;DHT22;14509;47.992;7.848;2024-02-14T09:31:32;19.10;33.80
2439;DHT22;14509;47.992;7.848;2024-02-14T09:33:34;19.00;33.40
2439;DHT22;14509;47.992;7.848;2024-02-14T09:35:38;19.10;33.60
2439;DHT22;14509;47.992;7.848;2024-02-14T09:37:44;19.20;33.60
2439;DHT22;14509;47.992;7.848;2024-02-14T09:39:46;19.20;33.20
2439;DHT22;14509;47.992;7.848;2024-02-14T09:41:52;19.20;33.30
2439;DHT22;14509;47.992;7.848;2024-02-14T09:43:57;19.30;33.60
2439;DHT22;14509;47.992;7.848;2024-02-14T09:45:59;19.40;33.60
2439;DHT22;14509;47.992;7.848;2024-02-14T09:48:08;19.60;33.70
2439;DHT22;14509;47.992;7.848;2024-02-14T09:50:12;19.60;33.80
2439;DHT22;14509;47.992;7.848;2024-02-14T09:52:14;19.70;33.70
2439;DHT22;14509;47.992;7.848;2024-02-14T09:54:17;19.80;33.90
2439;DHT22;14509;47.992;7.848;2024-02-14T09:56:18;19.90;34.00
2439;DHT22;14509;47.992;7.848;2024-02-14T09:58:23;19.90;34.30
2439;DHT22;14509;47.992;7.848;2024-02-14T10:00:27;20.00;34.30
2439;DHT22;14509;47.992;7.848;2024-02-14T10:02:30;20.10;35.00
2439;DHT22;14509;47.992;7.848;2024-02-14T10:04:32;19.90;35.90
2439;DHT22;14509;47.992;7.848;2024-02-14T10:06:33;19.90;36.10
2439;DHT22;14509;47.992;7.848;2024-02-14T10:08:34;20.00;36.00
2439;DHT22;14509;47.992;7.848;2024-02-14T10:10:37;20.00;37.00
2439;DHT22;14509;47.992;7.848;2024-02-14T10:12:39;20.00;37.30
2439;DHT22;14509;47.992;7.848;2024-02-14T10:14:42;20.10;37.00
2439;DHT22;14509;47.992;7.848;2024-02-14T10:16:45;20.00;37.20
2439;DHT22;14509;47.992;7.848;2024-02-14T10:18:48;20.00;37.70
2439;DHT22;14509;47.992;7.848;2024-02-14T10:20:54;20.00;38.50
2439;DHT22;14509;47.992;7.848;2024-02-14T10:23:01;19.90;38.80
2439;DHT22;14509;47.992;7.848;2024-02-14T10:25:05;19.90;39.80
2439;DHT22;14509;47.992;7.848;2024-02-14T10:27:11;19.80;40.00
2439;DHT22;14509;47.992;7.848;2024-02-14T10:29:22;19.80;40.10
2439;DHT22;14509;47.992;7.848;2024-02-14T10:35:38;19.90;40.30
2439;DHT22;14509;47.992;7.848;2024-02-14T10:37:41;19.90;40.00
2439;DHT22;14509;47.992;7.848;2024-02-14T10:39:45;19.80;40.40
2439;DHT22;14509;47.992;7.848;2024-02-14T10:41:49;19.70;40.90
2439;DHT22;14509;47.992;7.848;2024-02-14T10:43:51;19.70;41.30
2439;DHT22;14509;47.992;7.848;2024-02-14T10:45:54;19.80;41.30
2439;DHT22;14509;47.992;7.848;2024-02-14T10:47:56;19.90;41.20
2439;DHT22;14509;47.992;7.848;2024-02-14T10:50:01;19.90;41.30
2439;DHT22;14509;47.992;7.848;2024-02-14T10:52:06;19.90;41.20
2439;DHT22;14509;47.992;7.848;2024-02-14T10:54:11;20.00;41.20
2439;DHT22;14509;47.992;7.848;2024-02-14T10:56:17;20.10;41.50
2439;DHT22;14509;47.992;7.848;2024-02-14T10:58:19;20.20;41.60
2439;DHT22;14509;47.992;7.848;2024-02-14T11:00:22;20.10;41.50
2439;DHT22;14509;47.992;7.848;2024-02-14T11:02:25;20.10;41.90
2439;DHT22;14509;47.992;7.848;2024-02-14T11:04:29;20.30;41.20
2439;DHT22;14509;47.992;7.848;2024-02-14T11:06:30;20.00;40.50
2439;DHT22;14509;47.992;7.848;2024-02-14T11:08:34;20.40;40.60
2439;DHT22;14509;47.992;7.848;2024-02-14T11:10:37;20.50;40.80
2439;DHT22;14509;47.992;7.848;2024-02-14T11:12:40;20.50;40.70
2439;DHT22;14509;47.992;7.848;2024-02-14T11:14:42;20.60;40.80
2439;DHT22;14509;47.992;7.848;2024-02-14T11:16:45;20.60;40.70
2439;DHT22;14509;47.992;7.848;2024-02-14T11:18:47;20.70;40.50
2439;DHT22;14509;47.992;7.848;2024-02-14T11:20:49;20.60;40.50
2439;DHT22;14509;47.992;7.848;2024-02-14T11:22:53;20.60;40.50
2439;DHT22;14509;47.992;7.848;2024-02-14T11:24:56;20.60;40.60
2439;DHT22;14509;47.992;7.848;2024-02-14T11:27:01;20.60;40.80
2439;DHT22;14509;47.992;7.848;2024-02-14T11:29:04;20.50;41.10
2439;DHT22;14509;47.992;7.848;2024-02-14T11:31:07;20.60;41.00
2439;DHT22;14509;47.992;7.848;2024-02-14T11:33:14;20.60;41.10
2439;DHT22;14509;47.992;7.848;2024-02-14T11:35:16;20.70;41.10
2439;DHT22;14509;47.992;7.848;2024-02-14T11:37:20;20.80;41.00
2439;DHT22;14509;47.992;7.848;2024-02-14T11:39:24;20.70;40.90
2439;DHT22;14509;47.992;7.848;2024-02-14T11:41:28;20.70;41.00
2439;DHT22;14509;47.992;7.848;2024-02-14T11:43:30;20.60;41.20
2439;DHT22;14509;47.992;7.848;2024-02-14T11:45:32;20.60;41.40
2439;DHT22;14509;47.992;7.848;2024-02-14T11:47:34;20.50;41.40
2439;DHT22;14509;47.992;7.848;2024-02-14T11:49:38;20.40;41.60
2439;DHT22;14509;47.992;7.848;2024-02-14T11:51:43;20.30;41.70
2439;DHT22;14509;47.992;7.848;2024-02-14T11:53:46;20.30;41.90
2439;DHT22;14509;47.992;7.848;2024-02-14T11:55:48;20.20;42.70
2439;DHT22;14509;47.992;7.848;2024-02-14T11:57:52;20.30;42.30
2439;DHT22;14509;47.992;7.848;2024-02-14T11:59:53;20.30;42.50
2439;DHT22;14509;47.992;7.848;2024-02-14T12:01:56;20.30;41.80
2439;DHT22;14509;47.992;7.848;2024-02-14T12:03:59;20.30;41.70
2439;DHT22;14509;47.992;7.848;2024-02-14T12:06:01;20.40;42.00
2439;DHT22;14509;47.992;7.848;2024-02-14T12:08:04;20.60;42.00
2439;DHT22;14509;47.992;7.848;2024-02-14T12:10:09;20.60;41.70
2439;DHT22;14509;47.992;7.848;2024-02-14T12:12:13;20.60;41.80
2439;DHT22;14509;47.992;7.848;2024-02-14T12:14:17;20.70;41.80
2439;DHT22;14509;47.992;7.848;2024-02-14T12:16:25;20.80;42.00
2439;DHT22;14509;47.992;7.848;2024-02-14T12:18:27;20.90;41.90
2439;DHT22;14509;47.992;7.848;2024-02-14T12:20:29;21.20;42.00
2439;DHT22;14509;47.992;7.848;2024-02-14T12:22:31;21.10;41.50
2439;DHT22;14509;47.992;7.848;2024-02-14T12:24:33;21.10;41.40
2439;DHT22;14509;47.992;7.848;2024-02-14T12:26:35;21.20;41.50
2439;DHT22;14509;47.992;7.848;2024-02-14T12:28:37;21.30;41.30
2439;DHT22;14509;47.992;7.848;2024-02-14T12:30:45;21.40;41.30
2439;DHT22;14509;47.992;7.848;2024-02-14T12:32:57;21.50;41.30
2439;DHT22;14509;47.992;7.848;2024-02-14T12:34:59;21.40;41.30
2439;DHT22;14509;47.992;7.848;2024-02-14T12:37:01;21.80;41.90
2439;DHT22;14509;47.992;7.848;2024-02-14T12:39:04;21.20;42.10
2439;DHT22;14509;47.992;7.848;2024-02-14T12:41:05;21.10;42.00
2439;DHT22;14509;47.992;7.848;2024-02-14T12:43:07;20.90;42.40
2439;DHT22;14509;47.992;7.848;2024-02-14T12:45:08;20.60;43.00
2439;DHT22;14509;47.992;7.848;2024-02-14T12:47:12;20.50;43.50
2439;DHT22;14509;47.992;7.848;2024-02-14T12:49:14;20.50;43.80
2439;DHT22;14509;47.992;7.848;2024-02-14T12:51:21;20.40;43.90
2439;DHT22;14509;47.992;7.848;2024-02-14T12:53:29;20.40;44.10
2439;DHT22;14509;47.992;7.848;2024-02-14T12:55:31;20.40;44.10
2439;DHT22;14509;47.992;7.848;2024-02-14T12:57:34;20.30;44.10
2439;DHT22;14509;47.992;7.848;2024-02-14T12:59:42;20.20;44.50
2439;DHT22;14509;47.992;7.848;2024-02-14T13:01:44;20.20;44.60
2439;DHT22;14509;47.992;7.848;2024-02-14T13:03:47;20.20;44.60
2439;DHT22;14509;47.992;7.848;2024-02-14T13:05:49;20.30;44.90
2439;DHT22;14509;47.992;7.848;2024-02-14T13:07:54;20.20;44.80
2439;DHT22;14509;47.992;7.848;2024-02-14T13:09:56;20.10;45.60
2439;DHT22;14509;47.992;7.848;2024-02-14T13:11:57;20.10;45.40
2439;DHT22;14509;47.992;7.848;2024-02-14T13:13:59;20.00;45.60